Pagrindinis puslapis
METAR-TAF:

METAR-TAF

Oro uostai :

Sibiu, Rumunija

platuma: 45-48N, ilguma: 024-09E, Aukštis: 443 m

Dabartinis oras

Ataskaita buvo paskelbta 17 minutes, ne 17:00 UTC
Vėjas 4 kt iš Šiaurės/Šiaurės Vakarų
Temperatūra -2°C
Drėgmė 80%
Slėgis 1025 hPa
Matomumas: 8000 m
Su prošvaistėmis ne aukštis 1500 ft

METAR: LRSB 221700Z 33004KT 8000 BKN015 M02/M05 Q1025 R27/19//95

Laikas: 19:17 (17:17 UTC)

Prognozė

Ataskaita buvo paskelbta 6 valandos ir 17 minutes, ne 11:00 UTC
Prognozė galioja nuo 22 metu 12 UTC su 23 metu 12 UTC
Vėjas 4 kt nuo kintamojo kryptimis
Matomumas 10 km arba daugiau
nėra debesų žemiau 1500 m ir nėra kamuolinių lietaus debesų

TAF: LRSB 221100Z 2212/2312 VRB04KT CAVOK

Orai ataskaitas ir orų prognozės (METAR, TAF).

turimą stotys yra geltonos ir raudonos taškus žemėlapyje.

Perkelti pele per norėdami pamatyti stoties vardą.

Tada spustelėkite, norėdami matyti oro stebėjimo ir prognozės.

Norėdami pakeisti žemėlapį: spustelėkite ant žalios mygtukų su juodo kryžiaus žemyn,; žalią mygtuką su brūkšneliu, jei norite nutolinti; arba žalių rodyklių gretimoms žemėlapius.


METAR-TAF: